Time;durP1;ratioP1;P1;durP2;ratioP2;P2;SDS_P1;SDS_P2;PMS_P1;PMS_P2;Temp;Humidity;BMP_temperature;BMP_pressure;BME280_temperature;BME280_humidity;BME280_pressure;Samples;Min_cycle;Max_cycle;Signal;HPM_P1;HPM_P2
2021/03/20 00:01:23;;;;;;;14.63;8.30;;;-1.00;95.60;;;;;;4983371;28;20450;-60
2021/03/20 00:03:49;;;;;;;16.23;9.30;;;-1.10;95.60;;;;;;4968980;28;20433;-61
2021/03/20 00:06:18;;;;;;;15.40;8.60;;;-1.10;95.60;;;;;;4972106;28;20467;-61
2021/03/20 00:08:45;;;;;;;16.67;9.00;;;-1.10;95.60;;;;;;4980896;28;20426;-60
2021/03/20 00:11:13;;;;;;;15.30;8.20;;;-1.10;95.50;;;;;;4991553;28;21056;-60
2021/03/20 00:13:39;;;;;;;17.20;9.17;;;-1.10;95.50;;;;;;4989634;28;20853;-61
2021/03/20 00:16:05;;;;;;;21.37;8.77;;;-1.20;95.40;;;;;;4988410;28;20653;-60
2021/03/20 00:18:31;;;;;;;15.90;8.53;;;-1.20;95.60;;;;;;4977257;28;20581;-62
2021/03/20 00:20:57;;;;;;;16.70;8.93;;;-1.20;95.50;;;;;;4970928;28;20513;-60
2021/03/20 00:23:24;;;;;;;14.87;8.90;;;-1.20;95.50;;;;;;4985543;28;20281;-60
2021/03/20 00:25:50;;;;;;;17.67;8.33;;;-1.20;95.50;;;;;;4988213;28;20871;-63
2021/03/20 00:28:21;;;;;;;18.93;9.27;;;-1.30;95.40;;;;;;4990793;28;20437;-61
2021/03/20 00:30:55;;;;;;;21.07;9.60;;;-1.30;95.30;;;;;;4971567;28;20994;-60
2021/03/20 00:33:21;;;;;;;16.60;9.57;;;-1.30;95.20;;;;;;4982474;28;20461;-62
2021/03/20 00:35:47;;;;;;;21.90;9.70;;;-1.40;95.30;;;;;;4989694;28;20528;-61
2021/03/20 00:38:14;;;;;;;21.17;10.50;;;-1.40;95.50;;;;;;4996454;28;20503;-60
2021/03/20 00:40:41;;;;;;;21.50;9.90;;;-1.40;95.60;;;;;;4989309;28;20436;-61
2021/03/20 00:43:06;;;;;;;19.40;9.87;;;-1.50;95.60;;;;;;4994221;28;20470;-61
2021/03/20 00:45:33;;;;;;;17.20;9.57;;;-1.50;95.80;;;;;;4992559;28;20975;-60
2021/03/20 00:48:15;;;;;;;18.50;8.87;;;-1.50;95.80;;;;;;4995828;28;20641;-61
2021/03/20 00:50:41;;;;;;;18.23;9.90;;;-1.50;95.90;;;;;;4989925;28;20536;-60
2021/03/20 00:53:06;;;;;;;16.13;9.43;;;-1.50;95.90;;;;;;4996509;28;20958;-63
2021/03/20 00:55:32;;;;;;;18.13;8.30;;;-1.50;95.90;;;;;;4981563;28;20426;-61
2021/03/20 00:57:58;;;;;;;16.53;8.20;;;-1.50;96.00;;;;;;4981492;28;20186;-62
2021/03/20 01:00:27;;;;;;;15.07;9.00;;;-1.60;95.90;;;;;;4992099;28;20285;-62
2021/03/20 01:02:53;;;;;;;20.53;9.30;;;-1.60;95.80;;;;;;4994000;28;20963;-60
2021/03/20 01:05:19;;;;;;;22.27;10.00;;;-1.60;95.80;;;;;;4992309;28;20434;-61
2021/03/20 01:07:45;;;;;;;16.17;8.40;;;-1.60;96.00;;;;;;4993133;28;20182;-60
2021/03/20 01:10:19;;;;;;;18.53;9.00;;;-1.70;95.80;;;;;;4994661;28;20475;-61
2021/03/20 01:12:45;;;;;;;13.90;7.40;;;-1.70;95.90;;;;;;4994896;28;20412;-60
2021/03/20 01:15:12;;;;;;;18.60;8.90;;;-1.70;95.90;;;;;;4974567;28;20440;-60
2021/03/20 01:17:38;;;;;;;18.10;9.83;;;-1.80;95.90;;;;;;4993752;28;20422;-60
2021/03/20 01:20:07;;;;;;;19.20;9.80;;;-1.80;96.00;;;;;;4991030;28;20441;-60
2021/03/20 01:22:32;;;;;;;17.83;9.30;;;-1.80;96.00;;;;;;4992413;28;20465;-61
2021/03/20 01:25:03;;;;;;;16.47;9.60;;;-1.90;96.00;;;;;;4994048;28;20432;-60
2021/03/20 01:27:29;;;;;;;15.97;9.53;;;-1.90;96.00;;;;;;4993394;28;20435;-61
2021/03/20 01:29:54;;;;;;;16.00;9.10;;;-1.90;96.20;;;;;;4990018;28;20546;-61
2021/03/20 01:32:20;;;;;;;13.90;8.50;;;-1.90;96.30;;;;;;4994367;28;20230;-61
2021/03/20 01:34:46;;;;;;;18.03;9.53;;;-1.90;96.10;;;;;;4989537;28;20234;-61
2021/03/20 01:37:11;;;;;;;17.50;8.53;;;-2.00;96.40;;;;;;4992098;28;20187;-61
2021/03/20 01:39:37;;;;;;;15.50;8.70;;;-2.00;96.60;;;;;;4976139;28;20543;-61
2021/03/20 01:42:07;;;;;;;21.37;9.00;;;-2.00;96.50;;;;;;4977735;28;20631;-61
2021/03/20 01:44:36;;;;;;;21.23;9.03;;;-2.00;96.50;;;;;;4992686;28;20205;-61
2021/03/20 01:47:09;;;;;;;13.13;8.43;;;-2.10;96.20;;;;;;4995383;28;20452;-61
2021/03/20 01:49:37;;;;;;;16.63;8.47;;;-2.10;96.20;;;;;;4992922;28;20429;-61
2021/03/20 01:52:05;;;;;;;16.00;8.77;;;-2.10;96.20;;;;;;4992435;28;20464;-61
2021/03/20 01:54:44;;;;;;;14.30;8.50;;;-2.10;96.10;;;;;;4994186;28;20424;-61
2021/03/20 01:57:12;;;;;;;17.27;8.43;;;-2.10;96.30;;;;;;4994158;28;20430;-61
2021/03/20 01:59:38;;;;;;;22.20;9.40;;;-2.20;96.30;;;;;;4991776;28;20778;-61
2021/03/20 02:02:04;;;;;;;20.13;10.03;;;-2.20;96.40;;;;;;4970700;28;20455;-61
2021/03/20 02:04:32;;;;;;;24.60;9.43;;;-2.30;96.30;;;;;;4992980;28;20186;-60
2021/03/20 02:06:58;;;;;;;22.10;9.00;;;-2.30;96.40;;;;;;4978956;28;20442;-60
2021/03/20 02:09:23;;;;;;;17.23;9.30;;;-2.30;96.60;;;;;;4958738;28;20476;-62
2021/03/20 02:12:18;;;;;;;19.30;9.47;;;-2.30;96.80;;;;;;4978001;28;20212;-60
2021/03/20 02:14:58;;;;;;;17.20;10.07;;;-2.30;96.80;;;;;;4973957;28;20190;-60
2021/03/20 02:17:30;;;;;;;17.60;9.77;;;-2.30;96.60;;;;;;4992680;28;21116;-61
2021/03/20 02:20:17;;;;;;;17.90;10.40;;;-2.30;96.50;;;;;;4990344;28;20430;-62
2021/03/20 02:22:58;;;;;;;20.33;9.70;;;-2.40;96.70;;;;;;4991687;28;20540;-61
2021/03/20 02:25:41;;;;;;;19.20;10.50;;;-2.40;96.80;;;;;;4992870;28;20433;-61
2021/03/20 02:28:50;;;;;;;19.90;10.13;;;-2.40;97.10;;;;;;4985357;28;20464;-61
2021/03/20 02:31:34;;;;;;;21.37;10.20;;;-2.40;96.90;;;;;;4993198;28;20912;-61
2021/03/20 02:34:29;;;;;;;19.87;9.30;;;-2.50;97.00;;;;;;4986750;28;20526;-62
2021/03/20 02:36:59;;;;;;;21.00;10.43;;;-2.50;97.10;;;;;;4984466;28;20433;-61
2021/03/20 02:39:44;;;;;;;21.37;10.70;;;-2.50;97.40;;;;;;4992488;28;20880;-61
2021/03/20 02:42:35;;;;;;;15.80;8.60;;;-2.50;97.20;;;;;;4972440;28;20450;-61
2021/03/20 02:45:25;;;;;;;19.90;9.87;;;-2.50;96.80;;;;;;4988893;28;20451;-61
2021/03/20 02:48:09;;;;;;;16.87;9.53;;;-2.60;96.80;;;;;;4984960;28;20845;-62
2021/03/20 02:51:14;;;;;;;17.30;9.60;;;-2.60;96.80;;;;;;4991281;28;20521;-60
2021/03/20 02:54:05;;;;;;;17.37;9.40;;;-2.70;96.70;;;;;;4967822;28;20457;-61
2021/03/20 02:56:56;;;;;;;24.00;9.77;;;-2.70;96.80;;;;;;4990560;28;20441;-62
2021/03/20 02:59:26;;;;;;;18.13;9.67;;;-2.70;96.90;;;;;;4989236;28;20532;-61
2021/03/20 03:01:54;;;;;;;18.27;10.40;;;-2.80;97.10;;;;;;4982955;28;20480;-61
2021/03/20 03:04:23;;;;;;;22.70;11.20;;;-2.80;97.40;;;;;;4983175;28;21124;-61
2021/03/20 03:07:23;;;;;;;23.57;12.40;;;-2.80;97.70;;;;;;4987954;28;20423;-61
2021/03/20 03:10:04;;;;;;;22.57;12.30;;;-2.80;97.90;;;;;;4971089;28;20433;-61
2021/03/20 03:12:39;;;;;;;23.53;11.20;;;-2.80;98.00;;;;;;4990148;28;20540;-61
2021/03/20 03:15:10;;;;;;;26.63;12.10;;;-2.80;98.10;;;;;;4989520;28;20825;-61
2021/03/20 03:17:41;;;;;;;24.27;12.00;;;-2.90;98.00;;;;;;4973288;28;20464;-61
2021/03/20 03:20:12;;;;;;;28.27;12.40;;;-2.80;98.10;;;;;;4974051;28;20441;-61
2021/03/20 03:22:50;;;;;;;22.20;10.87;;;-2.90;98.10;;;;;;4969647;28;20481;-61
2021/03/20 03:25:20;;;;;;;26.93;11.50;;;-2.80;98.10;;;;;;4991561;28;20443;-61
2021/03/20 03:27:50;;;;;;;22.30;10.73;;;-2.90;97.80;;;;;;4990628;28;20934;-61
2021/03/20 03:30:19;;;;;;;19.20;10.57;;;-2.90;97.90;;;;;;4989510;28;20461;-61
2021/03/20 03:32:49;;;;;;;23.07;10.67;;;-2.90;97.80;;;;;;4987398;28;20694;-61
2021/03/20 03:35:44;;;;;;;22.83;10.80;;;-2.90;97.60;;;;;;4984578;28;20430;-61
2021/03/20 03:38:28;;;;;;;16.43;9.67;;;-2.90;97.40;;;;;;4988746;28;20441;-62
2021/03/20 03:41:08;;;;;;;20.60;9.63;;;-3.00;97.30;;;;;;5000414;28;20433;-61
2021/03/20 03:43:34;;;;;;;19.93;9.63;;;-3.00;97.40;;;;;;4987191;28;20468;-61
2021/03/20 03:46:00;;;;;;;20.47;9.73;;;-3.00;97.30;;;;;;4990183;28;20795;-61
2021/03/20 03:48:26;;;;;;;15.13;8.80;;;-3.00;97.30;;;;;;4988698;28;20442;-62
2021/03/20 03:50:55;;;;;;;19.20;9.30;;;-3.10;97.30;;;;;;4990784;28;20461;-62
2021/03/20 03:53:27;;;;;;;22.23;9.83;;;-3.10;97.10;;;;;;4989864;28;20457;-61
2021/03/20 03:55:59;;;;;;;20.07;9.70;;;-3.10;97.20;;;;;;4989038;28;20441;-61
2021/03/20 03:59:02;;;;;;;16.73;9.90;;;-3.10;97.10;;;;;;4985101;28;21023;-61
2021/03/20 04:01:40;;;;;;;18.83;9.60;;;-3.20;97.10;;;;;;4988488;28;20485;-62
2021/03/20 04:04:24;;;;;;;16.83;8.50;;;-3.20;97.00;;;;;;4970148;28;20411;-60
2021/03/20 04:07:01;;;;;;;19.20;9.77;;;-3.30;97.10;;;;;;4976504;28;20449;-61
2021/03/20 04:09:41;;;;;;;18.93;10.57;;;-3.30;97.20;;;;;;4988670;28;21015;-61
2021/03/20 04:12:21;;;;;;;21.17;9.87;;;-3.30;97.10;;;;;;4990835;28;20436;-62
2021/03/20 04:15:28;;;;;;;19.37;9.50;;;-3.40;97.30;;;;;;5005493;28;20429;-61
2021/03/20 04:18:03;;;;;;;23.30;10.10;;;-3.40;97.30;;;;;;4968813;28;20457;-63
2021/03/20 04:20:55;;;;;;;18.67;9.33;;;-3.40;97.50;;;;;;5001656;28;20433;-63
2021/03/20 04:23:56;;;;;;;19.70;10.40;;;-3.40;97.40;;;;;;4994496;28;20449;-63
2021/03/20 04:26:44;;;;;;;17.97;9.73;;;-3.40;97.60;;;;;;5011265;28;20437;-65
2021/03/20 04:29:37;;;;;;;22.13;11.47;;;-3.40;97.60;;;;;;4997285;28;21246;-61
2021/03/20 04:32:25;;;;;;;24.10;10.63;;;-3.40;97.70;;;;;;4987167;28;20450;-60
2021/03/20 04:35:03;;;;;;;21.17;10.97;;;-3.40;97.80;;;;;;4988064;28;20934;-60
2021/03/20 04:37:42;;;;;;;21.80;11.00;;;-3.40;97.80;;;;;;4985266;28;20437;-60
2021/03/20 04:40:45;;;;;;;24.23;11.40;;;-3.40;97.70;;;;;;4970446;28;20430;-60
2021/03/20 04:43:15;;;;;;;20.63;9.63;;;-3.40;97.50;;;;;;4973334;28;21014;-61
2021/03/20 04:45:44;;;;;;;15.80;8.73;;;-3.40;97.30;;;;;;4987469;28;20441;-61
2021/03/20 04:48:22;;;;;;;25.07;10.90;;;-3.50;97.30;;;;;;4982102;28;20451;-61
2021/03/20 04:50:54;;;;;;;31.73;12.87;;;-3.50;97.20;;;;;;4991141;28;20453;-60
2021/03/20 04:53:19;;;;;;;30.70;13.70;;;-3.60;97.60;;;;;;4989139;28;20449;-61
2021/03/20 04:55:46;;;;;;;22.27;10.97;;;-3.60;97.90;;;;;;4978846;28;20463;-60
2021/03/20 04:58:45;;;;;;;25.70;11.93;;;-3.60;97.80;;;;;;4989351;28;20257;-61
2021/03/20 05:01:26;;;;;;;22.27;10.93;;;-3.50;97.70;;;;;;4990518;28;20984;-60
2021/03/20 05:04:00;;;;;;;23.50;11.50;;;-3.50;97.70;;;;;;4981824;28;20448;-60
2021/03/20 05:06:27;;;;;;;22.67;11.00;;;-3.50;97.90;;;;;;4961358;28;20833;-61
2021/03/20 05:08:54;;;;;;;19.27;10.37;;;-3.50;97.90;;;;;;4982514;28;20431;-61
2021/03/20 05:11:59;;;;;;;23.90;9.83;;;-3.50;97.90;;;;;;4986752;28;21021;-61
2021/03/20 05:14:37;;;;;;;24.30;11.47;;;-3.50;98.00;;;;;;4970671;28;20468;-61
2021/03/20 05:17:07;;;;;;;23.20;10.73;;;-3.50;98.20;;;;;;4987299;28;21401;-61
2021/03/20 05:19:32;;;;;;;22.23;11.90;;;-3.40;98.30;;;;;;4987926;28;20407;-61
2021/03/20 05:21:58;;;;;;;26.53;13.40;;;-3.40;98.20;;;;;;4991138;28;20457;-62
2021/03/20 05:24:25;;;;;;;23.53;12.40;;;-3.40;98.00;;;;;;4990975;28;20190;-61
2021/03/20 05:26:56;;;;;;;30.17;14.23;;;-3.50;97.90;;;;;;4993993;28;20213;-61
2021/03/20 05:29:23;;;;;;;23.83;11.60;;;-3.50;98.00;;;;;;4979326;28;20436;-60
2021/03/20 05:31:49;;;;;;;25.30;12.20;;;-3.50;98.00;;;;;;4976656;28;20473;-62
2021/03/20 05:34:35;;;;;;;25.00;13.03;;;-3.50;98.00;;;;;;4987307;28;20454;-61
2021/03/20 05:37:02;;;;;;;30.17;12.77;;;-3.50;97.90;;;;;;4976365;28;20216;-61
2021/03/20 05:39:28;;;;;;;25.30;12.50;;;-3.50;98.10;;;;;;4991230;28;20468;-61
2021/03/20 05:41:59;;;;;;;26.50;13.10;;;-3.50;97.90;;;;;;4992410;28;20456;-62
2021/03/20 05:44:37;;;;;;;22.40;11.80;;;-3.50;98.00;;;;;;4987419;28;20197;-61
2021/03/20 05:47:36;;;;;;;26.17;12.73;;;-3.50;97.90;;;;;;4994216;28;20948;-61
2021/03/20 05:50:10;;;;;;;24.63;12.03;;;-3.50;98.00;;;;;;4992702;28;20722;-60
2021/03/20 05:53:02;;;;;;;21.43;11.97;;;-3.50;97.90;;;;;;4992144;28;20815;-61
2021/03/20 05:55:49;;;;;;;24.20;9.70;;;-3.50;97.70;;;;;;4980450;28;20968;-62
2021/03/20 05:58:33;;;;;;;18.17;8.80;;;-3.50;97.60;;;;;;4997781;28;20874;-61
2021/03/20 06:01:14;;;;;;;21.43;9.93;;;-3.40;97.80;;;;;;4985579;28;20856;-60
2021/03/20 06:03:54;;;;;;;22.77;10.40;;;-3.40;98.00;;;;;;4986111;28;20528;-61
2021/03/20 06:06:45;;;;;;;22.60;11.13;;;-3.40;98.30;;;;;;4994940;28;20403;-61
2021/03/20 06:09:34;;;;;;;26.43;13.30;;;-3.30;98.50;;;;;;4991912;28;20461;-61
2021/03/20 06:12:20;;;;;;;27.50;12.87;;;-3.20;98.40;;;;;;4972165;28;20472;-63
2021/03/20 06:15:13;;;;;;;24.93;13.93;;;-3.10;98.70;;;;;;4982231;28;20422;-61
2021/03/20 06:18:18;;;;;;;25.00;12.87;;;-3.00;98.80;;;;;;4992669;28;20425;-61
2021/03/20 06:21:02;;;;;;;27.37;12.10;;;-2.90;98.60;;;;;;4970269;28;20449;-60
2021/03/20 06:23:46;;;;;;;18.67;11.43;;;-2.80;98.20;;;;;;4985247;28;20459;-60
2021/03/20 06:26:20;;;;;;;19.83;10.73;;;-2.80;98.00;;;;;;4987267;28;20543;-61
2021/03/20 06:29:09;;;;;;;27.13;12.40;;;-2.80;98.10;;;;;;4992487;28;20440;-60
2021/03/20 06:31:39;;;;;;;24.13;12.80;;;-2.80;98.00;;;;;;4988672;28;20455;-60
2021/03/20 06:34:25;;;;;;;26.27;13.10;;;-2.70;98.00;;;;;;4981328;28;20456;-59
2021/03/20 06:36:56;;;;;;;27.53;14.40;;;-2.70;97.60;;;;;;4986812;28;20489;-57
2021/03/20 06:39:34;;;;;;;27.27;12.93;;;-2.70;97.80;;;;;;4979910;28;20970;-59
2021/03/20 06:42:11;;;;;;;25.33;12.30;;;-2.60;98.00;;;;;;4984810;28;20478;-66
2021/03/20 06:44:40;;;;;;;23.83;12.50;;;-2.60;98.20;;;;;;4988489;28;20493;-60
2021/03/20 06:47:24;;;;;;;24.40;11.50;;;-2.60;98.10;;;;;;4987018;28;20462;-60
2021/03/20 06:50:16;;;;;;;24.30;12.17;;;-2.50;98.60;;;;;;4985982;28;20975;-60
2021/03/20 06:52:43;;;;;;;24.70;12.23;;;-2.40;98.50;;;;;;4987774;28;20940;-61
2021/03/20 06:55:25;;;;;;;26.87;11.40;;;-2.40;98.60;;;;;;4990951;28;20454;-60
2021/03/20 06:57:51;;;;;;;21.73;11.03;;;-2.30;98.60;;;;;;4987914;28;20444;-59
2021/03/20 07:00:32;;;;;;;20.43;10.30;;;-2.30;98.50;;;;;;4990631;28;20424;-60
2021/03/20 07:03:35;;;;;;;22.23;11.13;;;-2.20;98.40;;;;;;4989299;28;21035;-59
2021/03/20 07:06:06;;;;;;;24.40;10.27;;;-2.10;98.60;;;;;;4972313;28;20434;-61
2021/03/20 07:08:43;;;;;;;21.27;9.93;;;-2.00;98.50;;;;;;4992801;28;20420;-62
2021/03/20 07:11:33;;;;;;;20.77;10.70;;;-2.00;98.30;;;;;;4984094;28;20469;-61
2021/03/20 07:14:05;;;;;;;16.67;8.50;;;-1.80;98.20;;;;;;4980052;28;20958;-57
2021/03/20 07:16:48;;;;;;;15.30;8.60;;;-1.70;97.50;;;;;;4982279;28;20443;-62
2021/03/20 07:19:15;;;;;;;13.80;8.77;;;-1.60;97.30;;;;;;4971881;28;20429;-62
2021/03/20 07:22:01;;;;;;;18.30;8.73;;;-1.50;96.80;;;;;;4970167;28;20826;-62
2021/03/20 07:24:40;;;;;;;18.10;9.37;;;-1.50;96.10;;;;;;4969732;28;20446;-60
2021/03/20 07:27:12;;;;;;;13.53;8.30;;;-1.40;96.20;;;;;;4985378;28;20417;-59
2021/03/20 07:29:42;;;;;;;15.60;9.17;;;-1.30;96.70;;;;;;4986342;28;20435;-62
2021/03/20 07:32:10;;;;;;;21.43;10.77;;;-1.20;96.70;;;;;;4987783;28;20490;-62
2021/03/20 07:34:36;;;;;;;23.30;10.47;;;-1.10;96.50;;;;;;4991121;28;20494;-62
2021/03/20 07:37:02;;;;;;;24.93;11.87;;;-1.00;96.50;;;;;;4989863;28;20425;-61
2021/03/20 07:39:39;;;;;;;23.30;11.10;;;-0.90;96.20;;;;;;4992197;28;20240;-61
2021/03/20 07:42:07;;;;;;;15.77;8.57;;;-0.80;96.60;;;;;;4973336;28;20727;-62
2021/03/20 07:44:52;;;;;;;18.13;9.20;;;-0.60;96.30;;;;;;4990157;28;20433;-62
2021/03/20 07:47:20;;;;;;;16.53;7.80;;;-0.30;95.50;;;;;;4989166;28;20431;-61
2021/03/20 07:49:45;;;;;;;12.77;7.77;;;-0.20;94.30;;;;;;4975890;28;20437;-62
2021/03/20 07:52:28;;;;;;;13.47;8.63;;;-0.10;93.70;;;;;;4974665;28;20532;-61
2021/03/20 07:55:23;;;;;;;14.90;7.87;;;-0.10;93.40;;;;;;4989427;28;20187;-61
2021/03/20 07:57:53;;;;;;;13.40;7.50;;;0.00;93.40;;;;;;4972841;28;20450;-62
2021/03/20 08:00:46;;;;;;;14.30;6.67;;;0.10;92.80;;;;;;4980737;28;20439;-61
2021/03/20 08:03:19;;;;;;;10.73;6.50;;;0.10;92.00;;;;;;4995261;28;20485;-61
2021/03/20 08:05:45;;;;;;;8.97;5.60;;;0.10;91.40;;;;;;4978217;28;20437;-62
2021/03/20 08:08:27;;;;;;;10.63;5.80;;;0.20;90.50;;;;;;4988542;28;20445;-61
2021/03/20 08:10:58;;;;;;;8.40;5.57;;;0.30;90.00;;;;;;4989841;28;20465;-61
2021/03/20 08:13:29;;;;;;;9.20;5.63;;;0.40;87.80;;;;;;4989503;28;20510;-62
2021/03/20 08:15:56;;;;;;;8.80;5.37;;;0.50;86.20;;;;;;4984369;28;20481;-62
2021/03/20 08:18:53;;;;;;;7.60;5.50;;;0.70;84.50;;;;;;4980826;28;20430;-58
2021/03/20 08:21:49;;;;;;;7.90;5.40;;;0.80;81.50;;;;;;4977261;28;20496;-61
2021/03/20 08:24:33;;;;;;;9.50;5.90;;;1.00;79.60;;;;;;4966795;28;20437;-61
2021/03/20 08:27:02;;;;;;;8.93;5.70;;;1.10;78.10;;;;;;4990223;28;21128;-61
2021/03/20 08:29:54;;;;;;;8.60;5.37;;;1.20;77.80;;;;;;4984238;28;20442;-61
2021/03/20 08:32:51;;;;;;;9.63;5.50;;;1.40;73.00;;;;;;4988479;28;20466;-61
2021/03/20 08:35:33;;;;;;;6.27;5.23;;;1.50;72.40;;;;;;4982065;28;20428;-60
2021/03/20 08:38:08;;;;;;;6.37;4.30;;;1.50;63.60;;;;;;4987064;28;20433;-61
2021/03/20 08:40:57;;;;;;;8.30;4.93;;;1.60;62.50;;;;;;4986935;28;20441;-61
2021/03/20 08:43:42;;;;;;;6.13;4.20;;;1.80;60.60;;;;;;4981933;28;20541;-57
2021/03/20 08:46:38;;;;;;;9.73;5.70;;;2.00;58.60;;;;;;4985680;28;20792;-60
2021/03/20 08:49:35;;;;;;;6.27;4.60;;;2.20;67.50;;;;;;4982777;28;20557;-60
2021/03/20 08:52:10;;;;;;;5.80;4.47;;;2.50;59.00;;;;;;4966831;28;20476;-60
2021/03/20 08:54:39;;;;;;;5.43;4.57;;;2.60;54.60;;;;;;4976771;28;20860;-62
2021/03/20 08:57:42;;;;;;;5.90;4.40;;;2.70;54.50;;;;;;4970581;28;20432;-61
2021/03/20 09:00:21;;;;;;;6.60;4.57;;;2.60;55.00;;;;;;4990973;28;20422;-61
2021/03/20 09:02:48;;;;;;;6.17;4.50;;;2.40;54.10;;;;;;4987311;28;20540;-61
2021/03/20 09:05:29;;;;;;;7.53;4.40;;;2.40;54.80;;;;;;4976142;28;20499;-61
2021/03/20 09:08:02;;;;;;;5.00;4.03;;;2.40;55.00;;;;;;5002719;28;20518;-62
2021/03/20 09:10:42;;;;;;;6.73;4.10;;;2.50;54.00;;;;;;4993299;28;21132;-62
2021/03/20 09:13:31;;;;;;;5.37;3.87;;;2.50;53.70;;;;;;4983700;28;20935;-61
2021/03/20 09:16:05;;;;;;;7.13;4.87;;;2.40;53.20;;;;;;4987525;28;20436;-61
2021/03/20 09:18:33;;;;;;;6.70;3.90;;;2.30;53.70;;;;;;4972284;28;20430;-61
2021/03/20 09:21:06;;;;;;;15.17;4.53;;;2.10;54.00;;;;;;4993729;28;20441;-61
2021/03/20 09:23:37;;;;;;;5.80;4.17;;;2.00;53.70;;;;;;4988950;28;20557;-60
2021/03/20 09:26:09;;;;;;;10.53;4.40;;;1.90;53.80;;;;;;4990173;28;20458;-61
2021/03/20 09:29:01;;;;;;;6.57;4.30;;;1.80;54.20;;;;;;4986829;28;20437;-62
2021/03/20 09:31:30;;;;;;;5.63;4.03;;;1.80;53.30;;;;;;4964071;28;20465;-61
2021/03/20 09:33:58;;;;;;;8.60;4.20;;;1.80;54.10;;;;;;4988685;28;20563;-61
2021/03/20 09:36:44;;;;;;;4.00;3.40;;;2.00;53.40;;;;;;4983911;28;20670;-61
2021/03/20 09:39:32;;;;;;;5.17;4.03;;;2.10;52.50;;;;;;4984021;28;20440;-61
2021/03/20 09:41:58;;;;;;;4.07;3.37;;;2.10;51.70;;;;;;4990269;28;20985;-60
2021/03/20 09:44:25;;;;;;;6.23;4.43;;;2.00;51.00;;;;;;4988930;28;21131;-60
2021/03/20 09:46:54;;;;;;;7.33;4.47;;;1.90;51.40;;;;;;4996276;28;20461;-62
2021/03/20 09:49:22;;;;;;;8.33;5.77;;;1.80;52.10;;;;;;4992413;28;20499;-61
2021/03/20 09:51:50;;;;;;;6.47;4.73;;;1.70;52.90;;;;;;4988809;28;20524;-61
2021/03/20 09:54:33;;;;;;;9.67;4.93;;;1.90;54.20;;;;;;4991341;28;20957;-60
2021/03/20 09:59:42;;;;;;;6.77;4.10;;;2.40;51.20;;;;;;4982690;28;20513;-61
2021/03/20 10:02:11;;;;;;;5.50;4.37;;;2.40;51.30;;;;;;4994722;28;20873;-60
2021/03/20 10:04:45;;;;;;;5.93;4.33;;;2.30;50.20;;;;;;5005997;28;20213;-61
2021/03/20 10:07:22;;;;;;;4.50;3.60;;;2.10;49.80;;;;;;4990474;28;20425;-62
2021/03/20 10:10:03;;;;;;;5.57;4.40;;;1.90;50.50;;;;;;4994582;28;20509;-61
2021/03/20 10:12:51;;;;;;;5.40;4.07;;;2.00;50.30;;;;;;4981631;28;20458;-61
2021/03/20 10:15:29;;;;;;;5.97;4.13;;;2.10;51.50;;;;;;4986478;28;20445;-61
2021/03/20 10:18:14;;;;;;;5.90;4.10;;;2.40;52.30;;;;;;4989265;28;20497;-61
2021/03/20 10:20:55;;;;;;;5.60;3.87;;;2.50;51.10;;;;;;4983232;28;20440;-61
2021/03/20 10:23:46;;;;;;;5.97;3.90;;;2.60;49.80;;;;;;4985507;28;20451;-58
2021/03/20 10:26:38;;;;;;;6.60;3.90;;;2.70;49.60;;;;;;4978554;28;20619;-60
2021/03/20 10:29:18;;;;;;;11.40;4.80;;;2.90;49.30;;;;;;4981117;28;20440;-61
2021/03/20 10:31:50;;;;;;;9.87;4.30;;;3.20;49.70;;;;;;4979054;28;20526;-62
2021/03/20 10:34:20;;;;;;;7.10;4.00;;;3.30;49.20;;;;;;4980067;28;20419;-61
2021/03/20 10:36:48;;;;;;;4.20;3.43;;;3.40;47.10;;;;;;4963224;28;20442;-61
2021/03/20 10:39:31;;;;;;;5.00;3.90;;;3.40;46.90;;;;;;4978787;28;20438;-59
2021/03/20 10:42:12;;;;;;;8.20;4.00;;;3.30;45.50;;;;;;4971354;28;20826;-65
2021/03/20 10:44:41;;;;;;;4.90;4.10;;;3.00;45.30;;;;;;4991757;28;20457;-61
2021/03/20 10:47:22;;;;;;;6.60;4.10;;;2.80;44.30;;;;;;4983982;28;20436;-62
2021/03/20 10:49:56;;;;;;;4.10;3.33;;;2.90;45.60;;;;;;4979324;28;20463;-61
2021/03/20 10:52:32;;;;;;;4.40;3.63;;;3.10;46.10;;;;;;4979721;28;20465;-61
2021/03/20 10:55:01;;;;;;;3.87;3.47;;;3.40;47.70;;;;;;4980977;28;20422;-61
2021/03/20 10:57:30;;;;;;;6.30;4.30;;;3.80;46.40;;;;;;4980595;28;20479;-61
2021/03/20 10:59:56;;;;;;;6.40;4.60;;;4.10;46.30;;;;;;4992042;28;20466;-57
2021/03/20 11:02:34;;;;;;;4.20;3.70;;;4.30;44.70;;;;;;4982449;28;20488;-63
2021/03/20 11:05:33;;;;;;;5.20;4.00;;;4.60;44.50;;;;;;4982630;28;20435;-59
2021/03/20 11:08:19;;;;;;;4.73;3.63;;;4.80;44.60;;;;;;4969086;28;20497;-62
2021/03/20 11:10:49;;;;;;;6.10;4.30;;;5.00;43.10;;;;;;4987919;28;21354;-61
2021/03/20 11:13:17;;;;;;;4.87;3.63;;;5.10;41.90;;;;;;4987429;28;20460;-58
2021/03/20 11:15:47;;;;;;;5.67;3.87;;;5.30;42.80;;;;;;4989054;28;20436;-60
2021/03/20 11:18:29;;;;;;;6.30;3.97;;;5.50;42.50;;;;;;4986726;28;20579;-61
2021/03/20 11:20:55;;;;;;;6.00;4.10;;;5.40;41.60;;;;;;4987435;28;20575;-61
2021/03/20 11:23:34;;;;;;;5.87;4.67;;;5.10;40.50;;;;;;4971933;28;20996;-61
2021/03/20 11:26:25;;;;;;;6.60;4.43;;;4.70;41.10;;;;;;4987378;28;20184;-61
2021/03/20 11:28:52;;;;;;;7.10;4.50;;;4.30;42.00;;;;;;4981614;28;20447;-61
2021/03/20 11:31:19;;;;;;;6.17;4.80;;;4.40;43.00;;;;;;4988510;28;20454;-59
2021/03/20 11:33:45;;;;;;;4.30;3.60;;;4.40;41.90;;;;;;4970916;28;20988;-60
2021/03/20 11:36:18;;;;;;;4.87;4.13;;;4.10;40.00;;;;;;4986618;28;20432;-62
2021/03/20 11:38:44;;;;;;;5.27;3.83;;;3.90;40.60;;;;;;4981605;28;20814;-60
2021/03/20 11:41:10;;;;;;;5.23;3.77;;;3.70;41.90;;;;;;4986978;28;20436;-63
2021/03/20 11:43:51;;;;;;;4.93;3.93;;;3.60;42.10;;;;;;4985608;28;20463;-63
2021/03/20 11:46:25;;;;;;;3.40;2.80;;;3.70;42.10;;;;;;4979509;28;20854;-64
2021/03/20 11:48:59;;;;;;;5.30;3.50;;;4.00;40.70;;;;;;4969692;28;20808;-56
2021/03/20 11:51:39;;;;;;;3.80;3.40;;;4.20;38.20;;;;;;4975622;28;20461;-59
2021/03/20 11:54:18;;;;;;;7.40;3.87;;;4.80;38.10;;;;;;4977833;28;20434;-57
2021/03/20 11:56:52;;;;;;;5.77;4.10;;;5.50;38.10;;;;;;4987412;28;20494;-59
2021/03/20 11:59:41;;;;;;;3.50;3.20;;;6.20;37.70;;;;;;4969506;28;20420;-60
2021/03/20 12:02:12;;;;;;;5.10;3.87;;;6.90;36.90;;;;;;4986297;28;20452;-61
2021/03/20 12:04:38;;;;;;;5.20;3.83;;;6.90;35.50;;;;;;4986904;28;20443;-65
2021/03/20 12:07:21;;;;;;;7.23;4.70;;;6.60;36.40;;;;;;4987923;28;21043;-57
2021/03/20 12:09:47;;;;;;;5.13;4.00;;;6.20;37.10;;;;;;4982865;28;20184;-61
2021/03/20 12:12:13;;;;;;;8.53;4.60;;;5.80;37.30;;;;;;4994621;28;20499;-59
2021/03/20 12:14:45;;;;;;;80.30;43.13;;;5.70;38.10;;;;;;4986287;28;20509;-59
2021/03/20 12:17:19;;;;;;;9.17;5.73;;;5.60;38.40;;;;;;4981400;28;20177;-60
2021/03/20 12:20:23;;;;;;;4.13;3.73;;;5.50;39.80;;;;;;4987667;28;21530;-61
2021/03/20 12:22:51;;;;;;;9.70;4.37;;;5.10;38.40;;;;;;4965050;28;20517;-60
2021/03/20 12:25:38;;;;;;;4.77;3.90;;;4.70;37.80;;;;;;4984167;28;22186;-60
2021/03/20 12:28:43;;;;;;;6.23;3.87;;;4.60;37.70;;;;;;4963500;28;20447;-59
2021/03/20 12:31:16;;;;;;;3.50;3.20;;;5.10;38.80;;;;;;4981903;28;20505;-62
2021/03/20 12:34:06;;;;;;;5.70;3.20;;;5.60;38.00;;;;;;4976930;28;20448;-60
2021/03/20 12:36:40;;;;;;;5.13;4.43;;;6.20;37.70;;;;;;4981390;28;20443;-59
2021/03/20 12:39:11;;;;;;;5.80;4.10;;;6.60;38.80;;;;;;4983992;28;20445;-59
2021/03/20 12:41:40;;;;;;;7.67;4.43;;;6.80;39.50;;;;;;4985907;28;20487;-60
2021/03/20 12:44:38;;;;;;;4.57;4.07;;;7.00;38.80;;;;;;4983609;28;20502;-60
2021/03/20 12:47:04;;;;;;;4.70;4.10;;;7.30;39.10;;;;;;4962930;28;20437;-60
2021/03/20 12:49:35;;;;;;;4.23;3.77;;;7.40;37.80;;;;;;4984220;28;20814;-59
2021/03/20 12:52:08;;;;;;;6.07;4.20;;;7.60;38.80;;;;;;4966465;28;20549;-60
2021/03/20 12:54:40;;;;;;;4.87;3.80;;;7.80;38.60;;;;;;4971132;28;20452;-59
2021/03/20 12:57:06;;;;;;;6.33;3.97;;;7.90;36.80;;;;;;4984712;28;20436;-60
2021/03/20 12:59:32;;;;;;;4.80;3.50;;;7.90;36.40;;;;;;4969855;28;20524;-58
2021/03/20 13:01:59;;;;;;;7.03;3.47;;;8.00;35.30;;;;;;4985585;28;20539;-58
2021/03/20 13:04:25;;;;;;;3.07;2.77;;;8.20;34.70;;;;;;4975580;28;20733;-56
2021/03/20 13:06:51;;;;;;;5.53;3.70;;;8.20;33.50;;;;;;4986240;28;20520;-58
2021/03/20 13:09:18;;;;;;;6.67;3.47;;;8.50;33.10;;;;;;4986168;28;21115;-59
2021/03/20 13:11:45;;;;;;;7.30;4.40;;;8.70;33.20;;;;;;4987467;28;20244;-60
2021/03/20 13:14:10;;;;;;;6.50;4.70;;;8.90;35.60;;;;;;4972208;28;20464;-60
2021/03/20 13:16:36;;;;;;;6.63;4.10;;;8.90;34.80;;;;;;4992491;28;20475;-59
2021/03/20 13:19:03;;;;;;;3.90;3.40;;;8.90;35.60;;;;;;4983063;28;20936;-60
2021/03/20 13:21:30;;;;;;;5.40;4.30;;;9.00;35.10;;;;;;4990367;28;20190;-60
2021/03/20 13:23:56;;;;;;;4.70;3.93;;;9.10;34.60;;;;;;4981424;28;20487;-60
2021/03/20 13:26:22;;;;;;;4.40;3.70;;;9.20;34.90;;;;;;4989427;28;20444;-59
2021/03/20 13:28:48;;;;;;;7.17;3.70;;;9.20;33.50;;;;;;4987136;28;20678;-59
2021/03/20 13:31:14;;;;;;;4.70;3.50;;;9.30;33.00;;;;;;4993498;28;20630;-59